sensor_id;sensor_type;location;lat;lon;timestamp;P1;durP1;ratioP1;P2;durP2;ratioP2
49514;SDS011;35415;47.870;16.058;2023-07-22T00:01:09;2.58;;;1.52;;
49514;SDS011;35415;47.870;16.058;2023-07-22T00:03:46;3.83;;;1.50;;
49514;SDS011;35415;47.870;16.058;2023-07-22T00:06:15;5.63;;;1.60;;
49514;SDS011;35415;47.870;16.058;2023-07-22T00:08:42;2.50;;;1.77;;
49514;SDS011;35415;47.870;16.058;2023-07-22T00:11:09;2.75;;;1.50;;
49514;SDS011;35415;47.870;16.058;2023-07-22T00:13:40;1.35;;;1.20;;
49514;SDS011;35415;47.870;16.058;2023-07-22T00:16:16;1.80;;;1.52;;
49514;SDS011;35415;47.870;16.058;2023-07-22T00:19:06;1.70;;;1.40;;
49514;SDS011;35415;47.870;16.058;2023-07-22T00:21:33;1.55;;;1.35;;
49514;SDS011;35415;47.870;16.058;2023-07-22T00:24:01;3.80;;;1.83;;
49514;SDS011;35415;47.870;16.058;2023-07-22T00:29:49;2.88;;;1.73;;
49514;SDS011;35415;47.870;16.058;2023-07-22T00:32:16;5.65;;;1.42;;
49514;SDS011;35415;47.870;16.058;2023-07-22T00:34:44;1.88;;;1.70;;
49514;SDS011;35415;47.870;16.058;2023-07-22T00:37:12;2.80;;;1.50;;
49514;SDS011;35415;47.870;16.058;2023-07-22T00:39:40;3.13;;;1.40;;
49514;SDS011;35415;47.870;16.058;2023-07-22T00:42:07;2.95;;;1.80;;
49514;SDS011;35415;47.870;16.058;2023-07-22T00:44:41;3.75;;;2.35;;
49514;SDS011;35415;47.870;16.058;2023-07-22T00:47:13;3.70;;;1.75;;
49514;SDS011;35415;47.870;16.058;2023-07-22T00:49:41;1.60;;;1.33;;
49514;SDS011;35415;47.870;16.058;2023-07-22T00:52:11;2.60;;;1.52;;
49514;SDS011;35415;47.870;16.058;2023-07-22T00:54:39;3.53;;;1.50;;
49514;SDS011;35415;47.870;16.058;2023-07-22T00:57:10;1.90;;;1.58;;
49514;SDS011;35415;47.870;16.058;2023-07-22T01:05:22;3.75;;;1.65;;
49514;SDS011;35415;47.870;16.058;2023-07-22T01:07:51;2.38;;;1.50;;
49514;SDS011;35415;47.870;16.058;2023-07-22T01:13:09;4.53;;;1.90;;
49514;SDS011;35415;47.870;16.058;2023-07-22T01:24:04;1.98;;;1.60;;
49514;SDS011;35415;47.870;16.058;2023-07-22T01:26:33;2.25;;;1.30;;
49514;SDS011;35415;47.870;16.058;2023-07-22T01:29:22;4.82;;;1.42;;
49514;SDS011;35415;47.870;16.058;2023-07-22T01:31:52;4.18;;;1.70;;
49514;SDS011;35415;47.870;16.058;2023-07-22T01:34:22;3.10;;;1.60;;
49514;SDS011;35415;47.870;16.058;2023-07-22T01:36:50;2.03;;;1.52;;
49514;SDS011;35415;47.870;16.058;2023-07-22T01:45:17;2.17;;;1.45;;
49514;SDS011;35415;47.870;16.058;2023-07-22T01:47:44;3.22;;;1.60;;
49514;SDS011;35415;47.870;16.058;2023-07-22T01:50:13;2.42;;;1.50;;
49514;SDS011;35415;47.870;16.058;2023-07-22T01:52:44;5.07;;;1.70;;
49514;SDS011;35415;47.870;16.058;2023-07-22T01:55:13;4.05;;;1.50;;
49514;SDS011;35415;47.870;16.058;2023-07-22T01:57:43;2.50;;;1.70;;
49514;SDS011;35415;47.870;16.058;2023-07-22T02:00:13;3.38;;;1.83;;
49514;SDS011;35415;47.870;16.058;2023-07-22T02:02:42;5.15;;;1.70;;
49514;SDS011;35415;47.870;16.058;2023-07-22T02:05:10;7.72;;;1.88;;
49514;SDS011;35415;47.870;16.058;2023-07-22T02:07:39;2.10;;;1.50;;
49514;SDS011;35415;47.870;16.058;2023-07-22T02:10:07;3.17;;;1.90;;
49514;SDS011;35415;47.870;16.058;2023-07-22T02:12:37;4.63;;;1.60;;
49514;SDS011;35415;47.870;16.058;2023-07-22T02:15:05;6.13;;;2.05;;
49514;SDS011;35415;47.870;16.058;2023-07-22T02:17:37;3.65;;;1.58;;
49514;SDS011;35415;47.870;16.058;2023-07-22T02:20:07;1.80;;;1.45;;
49514;SDS011;35415;47.870;16.058;2023-07-22T02:34:35;1.52;;;1.40;;
49514;SDS011;35415;47.870;16.058;2023-07-22T02:37:04;1.80;;;1.55;;
49514;SDS011;35415;47.870;16.058;2023-07-22T02:39:33;2.05;;;1.70;;
49514;SDS011;35415;47.870;16.058;2023-07-22T02:42:00;2.58;;;1.80;;
49514;SDS011;35415;47.870;16.058;2023-07-22T02:47:19;2.92;;;1.80;;
49514;SDS011;35415;47.870;16.058;2023-07-22T02:49:46;6.10;;;1.60;;
49514;SDS011;35415;47.870;16.058;2023-07-22T02:52:15;2.40;;;1.90;;
49514;SDS011;35415;47.870;16.058;2023-07-22T03:00:36;3.90;;;1.52;;
49514;SDS011;35415;47.870;16.058;2023-07-22T03:03:03;4.80;;;1.63;;
49514;SDS011;35415;47.870;16.058;2023-07-22T03:05:37;1.48;;;1.10;;
49514;SDS011;35415;47.870;16.058;2023-07-22T03:08:08;1.65;;;1.35;;
49514;SDS011;35415;47.870;16.058;2023-07-22T03:22:16;5.28;;;1.55;;
49514;SDS011;35415;47.870;16.058;2023-07-22T03:24:46;3.35;;;1.90;;
49514;SDS011;35415;47.870;16.058;2023-07-22T03:27:13;4.03;;;1.55;;
49514;SDS011;35415;47.870;16.058;2023-07-22T03:29:42;1.55;;;1.40;;
49514;SDS011;35415;47.870;16.058;2023-07-22T03:32:11;1.85;;;1.60;;
49514;SDS011;35415;47.870;16.058;2023-07-22T03:46:49;2.70;;;1.30;;
49514;SDS011;35415;47.870;16.058;2023-07-22T03:52:23;1.55;;;1.05;;
49514;SDS011;35415;47.870;16.058;2023-07-22T03:54:53;2.25;;;1.42;;
49514;SDS011;35415;47.870;16.058;2023-07-22T03:57:24;2.03;;;1.45;;
49514;SDS011;35415;47.870;16.058;2023-07-22T03:59:52;2.15;;;1.30;;
49514;SDS011;35415;47.870;16.058;2023-07-22T04:02:21;1.80;;;1.20;;
49514;SDS011;35415;47.870;16.058;2023-07-22T04:04:49;2.15;;;1.23;;
49514;SDS011;35415;47.870;16.058;2023-07-22T04:10:20;2.78;;;1.10;;
49514;SDS011;35415;47.870;16.058;2023-07-22T04:12:47;2.45;;;1.50;;
49514;SDS011;35415;47.870;16.058;2023-07-22T04:15:15;1.60;;;1.20;;
49514;SDS011;35415;47.870;16.058;2023-07-22T04:26:57;1.88;;;1.38;;
49514;SDS011;35415;47.870;16.058;2023-07-22T04:32:28;2.72;;;1.25;;
49514;SDS011;35415;47.870;16.058;2023-07-22T04:53:12;1.48;;;0.98;;
49514;SDS011;35415;47.870;16.058;2023-07-22T04:55:41;1.45;;;1.10;;
49514;SDS011;35415;47.870;16.058;2023-07-22T04:58:08;4.80;;;2.13;;
49514;SDS011;35415;47.870;16.058;2023-07-22T05:00:36;1.30;;;1.20;;
49514;SDS011;35415;47.870;16.058;2023-07-22T05:03:08;1.83;;;1.30;;
49514;SDS011;35415;47.870;16.058;2023-07-22T05:05:35;4.32;;;1.02;;
49514;SDS011;35415;47.870;16.058;2023-07-22T05:08:06;3.83;;;2.05;;
49514;SDS011;35415;47.870;16.058;2023-07-22T05:10:35;3.13;;;1.23;;
49514;SDS011;35415;47.870;16.058;2023-07-22T05:13:09;1.33;;;1.10;;
49514;SDS011;35415;47.870;16.058;2023-07-22T05:15:36;1.98;;;1.35;;
49514;SDS011;35415;47.870;16.058;2023-07-22T05:18:06;4.00;;;1.30;;
49514;SDS011;35415;47.870;16.058;2023-07-22T05:20:33;7.40;;;1.48;;
49514;SDS011;35415;47.870;16.058;2023-07-22T05:23:01;2.15;;;1.35;;
49514;SDS011;35415;47.870;16.058;2023-07-22T05:25:29;1.42;;;1.20;;
49514;SDS011;35415;47.870;16.058;2023-07-22T05:27:58;2.13;;;1.75;;
49514;SDS011;35415;47.870;16.058;2023-07-22T05:30:25;2.42;;;1.30;;
49514;SDS011;35415;47.870;16.058;2023-07-22T05:32:57;3.00;;;1.20;;
49514;SDS011;35415;47.870;16.058;2023-07-22T05:35:25;2.03;;;1.20;;
49514;SDS011;35415;47.870;16.058;2023-07-22T05:37:52;1.52;;;1.40;;
49514;SDS011;35415;47.870;16.058;2023-07-22T05:40:20;1.60;;;1.30;;
49514;SDS011;35415;47.870;16.058;2023-07-22T05:42:50;2.42;;;1.33;;
49514;SDS011;35415;47.870;16.058;2023-07-22T05:45:19;2.95;;;1.50;;
49514;SDS011;35415;47.870;16.058;2023-07-22T05:47:46;1.98;;;1.48;;
49514;SDS011;35415;47.870;16.058;2023-07-22T05:50:15;3.17;;;1.40;;
49514;SDS011;35415;47.870;16.058;2023-07-22T05:52:42;2.55;;;1.30;;
49514;SDS011;35415;47.870;16.058;2023-07-22T05:55:10;1.80;;;1.15;;
49514;SDS011;35415;47.870;16.058;2023-07-22T05:57:37;2.05;;;1.40;;
49514;SDS011;35415;47.870;16.058;2023-07-22T06:00:05;2.47;;;1.55;;
49514;SDS011;35415;47.870;16.058;2023-07-22T06:02:40;3.63;;;1.40;;
49514;SDS011;35415;47.870;16.058;2023-07-22T06:05:08;3.45;;;1.38;;
49514;SDS011;35415;47.870;16.058;2023-07-22T06:07:35;1.48;;;1.30;;
49514;SDS011;35415;47.870;16.058;2023-07-22T06:10:05;2.08;;;1.70;;
49514;SDS011;35415;47.870;16.058;2023-07-22T06:12:36;1.85;;;1.40;;
49514;SDS011;35415;47.870;16.058;2023-07-22T06:15:05;6.28;;;1.85;;
49514;SDS011;35415;47.870;16.058;2023-07-22T06:17:33;1.67;;;1.10;;
49514;SDS011;35415;47.870;16.058;2023-07-22T06:20:07;2.03;;;1.25;;
49514;SDS011;35415;47.870;16.058;2023-07-22T06:22:48;1.33;;;1.23;;
49514;SDS011;35415;47.870;16.058;2023-07-22T06:25:15;3.45;;;1.30;;
49514;SDS011;35415;47.870;16.058;2023-07-22T06:27:44;1.60;;;1.33;;
49514;SDS011;35415;47.870;16.058;2023-07-22T06:30:11;1.75;;;1.50;;
49514;SDS011;35415;47.870;16.058;2023-07-22T06:32:39;1.92;;;1.45;;
49514;SDS011;35415;47.870;16.058;2023-07-22T06:35:12;2.35;;;1.23;;
49514;SDS011;35415;47.870;16.058;2023-07-22T06:37:41;1.95;;;1.20;;
49514;SDS011;35415;47.870;16.058;2023-07-22T06:40:08;1.52;;;1.20;;
49514;SDS011;35415;47.870;16.058;2023-07-22T06:42:38;2.78;;;1.52;;
49514;SDS011;35415;47.870;16.058;2023-07-22T06:45:06;3.40;;;1.48;;
49514;SDS011;35415;47.870;16.058;2023-07-22T06:47:41;4.53;;;1.80;;
49514;SDS011;35415;47.870;16.058;2023-07-22T06:50:11;1.60;;;1.20;;
49514;SDS011;35415;47.870;16.058;2023-07-22T06:52:41;1.80;;;1.52;;
49514;SDS011;35415;47.870;16.058;2023-07-22T06:55:09;3.20;;;1.40;;
49514;SDS011;35415;47.870;16.058;2023-07-22T06:57:36;2.95;;;1.60;;
49514;SDS011;35415;47.870;16.058;2023-07-22T07:00:04;1.98;;;1.23;;
49514;SDS011;35415;47.870;16.058;2023-07-22T07:02:35;2.25;;;1.20;;
49514;SDS011;35415;47.870;16.058;2023-07-22T07:05:02;3.10;;;1.67;;
49514;SDS011;35415;47.870;16.058;2023-07-22T07:07:32;1.58;;;1.40;;
49514;SDS011;35415;47.870;16.058;2023-07-22T07:12:50;1.45;;;1.30;;
49514;SDS011;35415;47.870;16.058;2023-07-22T07:15:20;1.73;;;1.25;;
49514;SDS011;35415;47.870;16.058;2023-07-22T07:17:47;2.40;;;1.55;;
49514;SDS011;35415;47.870;16.058;2023-07-22T07:20:15;1.95;;;1.40;;
49514;SDS011;35415;47.870;16.058;2023-07-22T07:22:44;1.52;;;1.30;;
49514;SDS011;35415;47.870;16.058;2023-07-22T07:25:13;1.92;;;1.50;;
49514;SDS011;35415;47.870;16.058;2023-07-22T07:27:41;1.30;;;1.10;;
49514;SDS011;35415;47.870;16.058;2023-07-22T07:32:48;1.77;;;1.20;;
49514;SDS011;35415;47.870;16.058;2023-07-22T07:36:07;1.98;;;1.15;;
49514;SDS011;35415;47.870;16.058;2023-07-22T07:41:49;1.55;;;1.30;;
49514;SDS011;35415;47.870;16.058;2023-07-22T07:44:16;2.08;;;1.33;;
49514;SDS011;35415;47.870;16.058;2023-07-22T07:46:44;4.22;;;1.30;;
49514;SDS011;35415;47.870;16.058;2023-07-22T07:49:11;2.92;;;1.48;;
49514;SDS011;35415;47.870;16.058;2023-07-22T07:51:40;3.25;;;1.55;;
49514;SDS011;35415;47.870;16.058;2023-07-22T07:54:07;2.25;;;1.10;;
49514;SDS011;35415;47.870;16.058;2023-07-22T07:56:35;1.65;;;1.02;;
49514;SDS011;35415;47.870;16.058;2023-07-22T07:59:04;1.38;;;1.15;;
49514;SDS011;35415;47.870;16.058;2023-07-22T08:24:33;1.67;;;1.38;;
49514;SDS011;35415;47.870;16.058;2023-07-22T08:27:03;1.42;;;1.10;;
49514;SDS011;35415;47.870;16.058;2023-07-22T08:43:25;1.23;;;1.10;;
49514;SDS011;35415;47.870;16.058;2023-07-22T08:45:58;2.20;;;1.30;;
49514;SDS011;35415;47.870;16.058;2023-07-22T08:48:27;1.60;;;1.30;;
49514;SDS011;35415;47.870;16.058;2023-07-22T08:51:02;1.45;;;1.10;;
49514;SDS011;35415;47.870;16.058;2023-07-22T08:53:31;1.40;;;1.10;;
49514;SDS011;35415;47.870;16.058;2023-07-22T08:56:03;1.85;;;1.30;;
49514;SDS011;35415;47.870;16.058;2023-07-22T08:58:33;2.92;;;1.45;;
49514;SDS011;35415;47.870;16.058;2023-07-22T09:01:01;1.42;;;1.27;;
49514;SDS011;35415;47.870;16.058;2023-07-22T09:06:06;1.67;;;1.38;;
49514;SDS011;35415;47.870;16.058;2023-07-22T09:08:35;1.15;;;1.05;;
49514;SDS011;35415;47.870;16.058;2023-07-22T09:11:03;2.30;;;1.50;;
49514;SDS011;35415;47.870;16.058;2023-07-22T09:13:33;1.83;;;1.40;;
49514;SDS011;35415;47.870;16.058;2023-07-22T09:16:24;1.30;;;1.20;;
49514;SDS011;35415;47.870;16.058;2023-07-22T09:18:57;1.77;;;1.50;;
49514;SDS011;35415;47.870;16.058;2023-07-22T09:24:38;2.70;;;1.50;;
49514;SDS011;35415;47.870;16.058;2023-07-22T09:27:12;2.33;;;1.55;;
49514;SDS011;35415;47.870;16.058;2023-07-22T09:29:41;1.60;;;1.40;;
49514;SDS011;35415;47.870;16.058;2023-07-22T09:32:10;2.72;;;1.27;;
49514;SDS011;35415;47.870;16.058;2023-07-22T09:34:37;3.45;;;1.67;;
49514;SDS011;35415;47.870;16.058;2023-07-22T09:37:20;2.08;;;1.52;;
49514;SDS011;35415;47.870;16.058;2023-07-22T09:39:48;2.28;;;1.77;;
49514;SDS011;35415;47.870;16.058;2023-07-22T09:42:23;3.80;;;1.60;;
49514;SDS011;35415;47.870;16.058;2023-07-22T09:44:52;2.10;;;1.83;;
49514;SDS011;35415;47.870;16.058;2023-07-22T09:47:22;1.90;;;1.55;;
49514;SDS011;35415;47.870;16.058;2023-07-22T09:49:49;2.50;;;1.55;;
49514;SDS011;35415;47.870;16.058;2023-07-22T09:55:32;1.58;;;1.45;;
49514;SDS011;35415;47.870;16.058;2023-07-22T09:58:01;2.13;;;1.80;;
49514;SDS011;35415;47.870;16.058;2023-07-22T10:03:58;2.67;;;1.70;;
49514;SDS011;35415;47.870;16.058;2023-07-22T10:06:27;7.15;;;2.55;;
49514;SDS011;35415;47.870;16.058;2023-07-22T10:08:56;2.17;;;1.67;;
49514;SDS011;35415;47.870;16.058;2023-07-22T10:11:28;2.35;;;1.77;;
49514;SDS011;35415;47.870;16.058;2023-07-22T10:13:57;3.90;;;2.00;;
49514;SDS011;35415;47.870;16.058;2023-07-22T10:19:14;1.70;;;1.55;;
49514;SDS011;35415;47.870;16.058;2023-07-22T10:21:56;3.17;;;1.70;;
49514;SDS011;35415;47.870;16.058;2023-07-22T10:24:26;2.08;;;1.52;;
49514;SDS011;35415;47.870;16.058;2023-07-22T10:26:56;2.28;;;1.60;;
49514;SDS011;35415;47.870;16.058;2023-07-22T10:29:25;3.88;;;2.67;;
49514;SDS011;35415;47.870;16.058;2023-07-22T10:34:43;3.20;;;1.77;;
49514;SDS011;35415;47.870;16.058;2023-07-22T10:37:10;2.67;;;1.60;;
49514;SDS011;35415;47.870;16.058;2023-07-22T11:00:19;2.13;;;1.92;;
49514;SDS011;35415;47.870;16.058;2023-07-22T11:03:13;2.72;;;1.60;;
49514;SDS011;35415;47.870;16.058;2023-07-22T11:16:05;5.75;;;1.75;;
49514;SDS011;35415;47.870;16.058;2023-07-22T11:18:37;3.00;;;2.00;;
49514;SDS011;35415;47.870;16.058;2023-07-22T11:29:47;2.45;;;1.67;;
49514;SDS011;35415;47.870;16.058;2023-07-22T11:35:10;2.42;;;1.77;;
49514;SDS011;35415;47.870;16.058;2023-07-22T11:40:32;2.08;;;1.80;;
49514;SDS011;35415;47.870;16.058;2023-07-22T11:43:05;3.50;;;1.90;;
49514;SDS011;35415;47.870;16.058;2023-07-22T11:45:33;4.88;;;2.08;;
49514;SDS011;35415;47.870;16.058;2023-07-22T11:48:10;4.70;;;1.92;;
49514;SDS011;35415;47.870;16.058;2023-07-22T11:53:25;2.70;;;2.10;;
49514;SDS011;35415;47.870;16.058;2023-07-22T11:55:59;2.88;;;1.95;;
49514;SDS011;35415;47.870;16.058;2023-07-22T11:58:29;2.55;;;2.10;;
49514;SDS011;35415;47.870;16.058;2023-07-22T12:04:02;2.88;;;1.95;;
49514;SDS011;35415;47.870;16.058;2023-07-22T12:06:38;2.55;;;1.88;;
49514;SDS011;35415;47.870;16.058;2023-07-22T12:09:07;2.17;;;1.75;;
49514;SDS011;35415;47.870;16.058;2023-07-22T12:11:36;6.13;;;2.25;;
49514;SDS011;35415;47.870;16.058;2023-07-22T12:16:56;2.40;;;1.90;;
49514;SDS011;35415;47.870;16.058;2023-07-22T12:32:00;2.33;;;1.90;;
49514;SDS011;35415;47.870;16.058;2023-07-22T12:34:27;4.23;;;2.20;;
49514;SDS011;35415;47.870;16.058;2023-07-22T12:36:54;2.85;;;2.55;;
49514;SDS011;35415;47.870;16.058;2023-07-22T12:39:21;2.70;;;1.95;;
49514;SDS011;35415;47.870;16.058;2023-07-22T12:41:49;2.50;;;2.17;;
49514;SDS011;35415;47.870;16.058;2023-07-22T12:44:19;3.65;;;2.40;;
49514;SDS011;35415;47.870;16.058;2023-07-22T12:46:46;3.15;;;2.22;;
49514;SDS011;35415;47.870;16.058;2023-07-22T12:52:25;4.85;;;2.20;;
49514;SDS011;35415;47.870;16.058;2023-07-22T12:54:52;2.88;;;2.33;;
49514;SDS011;35415;47.870;16.058;2023-07-22T12:57:20;4.32;;;2.53;;
49514;SDS011;35415;47.870;16.058;2023-07-22T12:59:47;3.72;;;2.13;;
49514;SDS011;35415;47.870;16.058;2023-07-22T13:02:15;3.30;;;2.47;;
49514;SDS011;35415;47.870;16.058;2023-07-22T13:04:44;2.22;;;2.03;;
49514;SDS011;35415;47.870;16.058;2023-07-22T13:07:14;2.88;;;2.40;;
49514;SDS011;35415;47.870;16.058;2023-07-22T13:09:41;3.67;;;2.15;;
49514;SDS011;35415;47.870;16.058;2023-07-22T13:12:36;2.85;;;2.08;;
49514;SDS011;35415;47.870;16.058;2023-07-22T13:15:05;3.13;;;2.30;;
49514;SDS011;35415;47.870;16.058;2023-07-22T13:17:34;2.75;;;2.30;;
49514;SDS011;35415;47.870;16.058;2023-07-22T13:20:05;2.90;;;2.40;;
49514;SDS011;35415;47.870;16.058;2023-07-22T13:31:02;3.35;;;2.40;;
49514;SDS011;35415;47.870;16.058;2023-07-22T13:33:32;2.70;;;2.13;;
49514;SDS011;35415;47.870;16.058;2023-07-22T13:36:00;4.85;;;3.00;;
49514;SDS011;35415;47.870;16.058;2023-07-22T13:38:28;3.50;;;2.50;;
49514;SDS011;35415;47.870;16.058;2023-07-22T13:40:55;2.80;;;2.22;;
49514;SDS011;35415;47.870;16.058;2023-07-22T13:43:32;2.95;;;2.20;;
49514;SDS011;35415;47.870;16.058;2023-07-22T13:45:59;4.07;;;2.30;;
49514;SDS011;35415;47.870;16.058;2023-07-22T13:48:28;2.63;;;2.00;;
49514;SDS011;35415;47.870;16.058;2023-07-22T13:50:56;3.38;;;2.28;;
49514;SDS011;35415;47.870;16.058;2023-07-22T13:53:23;2.70;;;2.30;;
49514;SDS011;35415;47.870;16.058;2023-07-22T13:55:52;5.40;;;2.10;;
49514;SDS011;35415;47.870;16.058;2023-07-22T13:58:19;2.83;;;2.17;;
49514;SDS011;35415;47.870;16.058;2023-07-22T14:00:46;2.55;;;2.33;;
49514;SDS011;35415;47.870;16.058;2023-07-22T14:03:14;2.90;;;2.30;;
49514;SDS011;35415;47.870;16.058;2023-07-22T14:05:46;3.20;;;2.40;;
49514;SDS011;35415;47.870;16.058;2023-07-22T14:08:13;3.47;;;2.40;;
49514;SDS011;35415;47.870;16.058;2023-07-22T14:10:41;2.25;;;2.00;;
49514;SDS011;35415;47.870;16.058;2023-07-22T14:13:08;3.20;;;2.20;;
49514;SDS011;35415;47.870;16.058;2023-07-22T14:18:08;3.95;;;2.45;;
49514;SDS011;35415;47.870;16.058;2023-07-22T14:28:39;3.78;;;2.00;;
49514;SDS011;35415;47.870;16.058;2023-07-22T14:31:07;2.75;;;2.00;;
49514;SDS011;35415;47.870;16.058;2023-07-22T14:33:34;3.22;;;2.47;;
49514;SDS011;35415;47.870;16.058;2023-07-22T14:36:03;3.22;;;2.13;;
49514;SDS011;35415;47.870;16.058;2023-07-22T14:38:30;3.35;;;2.38;;
49514;SDS011;35415;47.870;16.058;2023-07-22T14:41:09;2.47;;;2.00;;
49514;SDS011;35415;47.870;16.058;2023-07-22T14:43:36;2.58;;;1.95;;
49514;SDS011;35415;47.870;16.058;2023-07-22T14:46:03;4.00;;;1.80;;
49514;SDS011;35415;47.870;16.058;2023-07-22T14:48:31;3.30;;;2.53;;
49514;SDS011;35415;47.870;16.058;2023-07-22T14:50:59;2.47;;;1.88;;
49514;SDS011;35415;47.870;16.058;2023-07-22T14:53:27;4.53;;;3.40;;
49514;SDS011;35415;47.870;16.058;2023-07-22T14:55:54;3.75;;;1.80;;
49514;SDS011;35415;47.870;16.058;2023-07-22T14:58:23;4.72;;;2.30;;
49514;SDS011;35415;47.870;16.058;2023-07-22T15:00:51;2.20;;;1.80;;
49514;SDS011;35415;47.870;16.058;2023-07-22T15:03:22;2.42;;;2.00;;
49514;SDS011;35415;47.870;16.058;2023-07-22T15:05:52;2.92;;;2.00;;
49514;SDS011;35415;47.870;16.058;2023-07-22T15:08:20;5.05;;;2.20;;
49514;SDS011;35415;47.870;16.058;2023-07-22T15:10:47;2.17;;;1.92;;
49514;SDS011;35415;47.870;16.058;2023-07-22T15:16:14;3.25;;;2.42;;
49514;SDS011;35415;47.870;16.058;2023-07-22T15:18:43;3.55;;;2.00;;
49514;SDS011;35415;47.870;16.058;2023-07-22T16:18:50;3.10;;;1.90;;
49514;SDS011;35415;47.870;16.058;2023-07-22T16:21:19;2.70;;;1.92;;
49514;SDS011;35415;47.870;16.058;2023-07-22T16:23:46;3.25;;;2.38;;
49514;SDS011;35415;47.870;16.058;2023-07-22T16:26:19;2.88;;;2.20;;
49514;SDS011;35415;47.870;16.058;2023-07-22T16:28:49;2.58;;;2.00;;
49514;SDS011;35415;47.870;16.058;2023-07-22T16:31:16;2.22;;;1.83;;
49514;SDS011;35415;47.870;16.058;2023-07-22T16:40:31;3.40;;;2.33;;
49514;SDS011;35415;47.870;16.058;2023-07-22T16:43:00;4.43;;;2.58;;
49514;SDS011;35415;47.870;16.058;2023-07-22T16:45:28;3.60;;;2.42;;
49514;SDS011;35415;47.870;16.058;2023-07-22T16:48:03;2.42;;;2.10;;
49514;SDS011;35415;47.870;16.058;2023-07-22T16:50:31;2.50;;;2.10;;
49514;SDS011;35415;47.870;16.058;2023-07-22T16:52:58;2.35;;;2.10;;
49514;SDS011;35415;47.870;16.058;2023-07-22T16:55:36;3.05;;;2.20;;
49514;SDS011;35415;47.870;16.058;2023-07-22T16:58:03;5.18;;;2.28;;
49514;SDS011;35415;47.870;16.058;2023-07-22T17:00:30;2.55;;;2.15;;
49514;SDS011;35415;47.870;16.058;2023-07-22T17:02:58;2.10;;;1.90;;
49514;SDS011;35415;47.870;16.058;2023-07-22T17:05:25;4.05;;;2.33;;
49514;SDS011;35415;47.870;16.058;2023-07-22T17:07:53;2.63;;;2.10;;
49514;SDS011;35415;47.870;16.058;2023-07-22T17:10:23;2.67;;;2.13;;
49514;SDS011;35415;47.870;16.058;2023-07-22T17:12:52;3.30;;;2.60;;
49514;SDS011;35415;47.870;16.058;2023-07-22T17:15:20;2.65;;;2.10;;
49514;SDS011;35415;47.870;16.058;2023-07-22T17:17:48;2.30;;;2.10;;
49514;SDS011;35415;47.870;16.058;2023-07-22T17:20:15;3.35;;;2.28;;
49514;SDS011;35415;47.870;16.058;2023-07-22T17:22:43;3.08;;;2.00;;
49514;SDS011;35415;47.870;16.058;2023-07-22T17:25:11;3.22;;;2.00;;
49514;SDS011;35415;47.870;16.058;2023-07-22T17:27:38;2.65;;;2.15;;
49514;SDS011;35415;47.870;16.058;2023-07-22T17:30:10;2.83;;;2.10;;
49514;SDS011;35415;47.870;16.058;2023-07-22T17:32:37;2.05;;;1.85;;
49514;SDS011;35415;47.870;16.058;2023-07-22T17:35:05;3.45;;;2.22;;
49514;SDS011;35415;47.870;16.058;2023-07-22T17:37:33;2.40;;;1.98;;
49514;SDS011;35415;47.870;16.058;2023-07-22T17:40:01;3.33;;;2.30;;
49514;SDS011;35415;47.870;16.058;2023-07-22T17:42:28;2.00;;;1.73;;
49514;SDS011;35415;47.870;16.058;2023-07-22T17:44:55;2.60;;;1.92;;
49514;SDS011;35415;47.870;16.058;2023-07-22T17:47:25;3.03;;;2.10;;
49514;SDS011;35415;47.870;16.058;2023-07-22T17:49:52;2.28;;;1.90;;
49514;SDS011;35415;47.870;16.058;2023-07-22T17:52:19;1.90;;;1.67;;
49514;SDS011;35415;47.870;16.058;2023-07-22T17:54:47;2.72;;;1.95;;
49514;SDS011;35415;47.870;16.058;2023-07-22T17:57:15;2.15;;;1.80;;
49514;SDS011;35415;47.870;16.058;2023-07-22T17:59:43;4.45;;;1.70;;
49514;SDS011;35415;47.870;16.058;2023-07-22T18:02:11;2.42;;;2.00;;
49514;SDS011;35415;47.870;16.058;2023-07-22T18:04:40;18.25;;;4.18;;
49514;SDS011;35415;47.870;16.058;2023-07-22T18:07:09;2.20;;;2.00;;
49514;SDS011;35415;47.870;16.058;2023-07-22T18:09:40;2.47;;;1.80;;
49514;SDS011;35415;47.870;16.058;2023-07-22T18:12:07;2.67;;;2.05;;
49514;SDS011;35415;47.870;16.058;2023-07-22T18:14:38;2.83;;;2.30;;
49514;SDS011;35415;47.870;16.058;2023-07-22T18:17:12;2.63;;;2.17;;
49514;SDS011;35415;47.870;16.058;2023-07-22T18:19:54;3.03;;;2.15;;
49514;SDS011;35415;47.870;16.058;2023-07-22T18:52:59;2.92;;;2.15;;
49514;SDS011;35415;47.870;16.058;2023-07-22T18:55:28;2.30;;;1.85;;
49514;SDS011;35415;47.870;16.058;2023-07-22T18:57:55;2.33;;;1.73;;
49514;SDS011;35415;47.870;16.058;2023-07-22T19:00:26;2.42;;;1.92;;
49514;SDS011;35415;47.870;16.058;2023-07-22T19:02:54;2.00;;;1.80;;
49514;SDS011;35415;47.870;16.058;2023-07-22T19:05:22;4.82;;;2.25;;
49514;SDS011;35415;47.870;16.058;2023-07-22T19:07:50;2.65;;;2.00;;
49514;SDS011;35415;47.870;16.058;2023-07-22T19:10:22;3.65;;;2.28;;
49514;SDS011;35415;47.870;16.058;2023-07-22T19:12:51;4.07;;;2.00;;
49514;SDS011;35415;47.870;16.058;2023-07-22T19:15:28;2.58;;;2.10;;
49514;SDS011;35415;47.870;16.058;2023-07-22T19:23:49;2.22;;;1.90;;
49514;SDS011;35415;47.870;16.058;2023-07-22T19:26:28;3.33;;;2.20;;
49514;SDS011;35415;47.870;16.058;2023-07-22T19:28:55;5.18;;;2.33;;
49514;SDS011;35415;47.870;16.058;2023-07-22T19:31:23;2.58;;;1.98;;
49514;SDS011;35415;47.870;16.058;2023-07-22T19:33:50;2.60;;;1.83;;
49514;SDS011;35415;47.870;16.058;2023-07-22T19:36:18;2.45;;;1.85;;
49514;SDS011;35415;47.870;16.058;2023-07-22T19:38:45;5.53;;;2.25;;
49514;SDS011;35415;47.870;16.058;2023-07-22T19:41:13;3.38;;;2.08;;
49514;SDS011;35415;47.870;16.058;2023-07-22T19:43:52;2.78;;;2.05;;
49514;SDS011;35415;47.870;16.058;2023-07-22T19:46:21;2.25;;;1.80;;
49514;SDS011;35415;47.870;16.058;2023-07-22T19:48:49;2.63;;;1.90;;
49514;SDS011;35415;47.870;16.058;2023-07-22T19:51:16;1.88;;;1.50;;
49514;SDS011;35415;47.870;16.058;2023-07-22T19:53:49;2.60;;;2.17;;
49514;SDS011;35415;47.870;16.058;2023-07-22T19:56:28;2.97;;;1.85;;
49514;SDS011;35415;47.870;16.058;2023-07-22T19:59:05;2.88;;;1.67;;
49514;SDS011;35415;47.870;16.058;2023-07-22T20:05:38;2.50;;;2.00;;
49514;SDS011;35415;47.870;16.058;2023-07-22T20:11:48;3.90;;;2.20;;
49514;SDS011;35415;47.870;16.058;2023-07-22T22:43:02;3.65;;;2.45;;
49514;SDS011;35415;47.870;16.058;2023-07-22T22:45:29;3.08;;;2.35;;
49514;SDS011;35415;47.870;16.058;2023-07-22T23:19:38;2.63;;;2.10;;
49514;SDS011;35415;47.870;16.058;2023-07-22T23:39:40;3.53;;;2.42;;
